createdAt,value
2022-12-01T00:03:49.448Z,5.14
2022-12-01T00:08:51.682Z,5.15
2022-12-01T00:13:55.847Z,5.14
2022-12-01T00:19:00.010Z,5.15
2022-12-01T00:24:04.237Z,5.11
2022-12-01T00:29:08.344Z,5.14
2022-12-01T00:39:16.702Z,5.16
2022-12-01T00:44:20.822Z,5.17
2022-12-01T00:49:25.004Z,5.12
2022-12-01T00:54:29.168Z,5.11
2022-12-01T00:59:33.353Z,5.15
2022-12-01T01:04:37.508Z,5.16
2022-12-01T01:09:41.671Z,5.15
2022-12-01T01:14:45.828Z,5.15
2022-12-01T01:19:50.308Z,5.15
2022-12-01T01:24:54.179Z,5.15
2022-12-01T01:29:58.302Z,5.18
2022-12-01T01:35:02.482Z,5.20
2022-12-01T01:40:06.638Z,5.19
2022-12-01T01:45:10.802Z,5.14
2022-12-01T01:50:14.961Z,5.15
2022-12-01T01:55:19.151Z,5.14
2022-12-01T02:00:21.370Z,5.10
2022-12-01T02:05:25.623Z,5.11
2022-12-01T02:10:27.875Z,5.11
2022-12-01T02:15:31.986Z,5.11
2022-12-01T02:25:40.332Z,5.12
2022-12-01T02:30:44.529Z,5.12
2022-12-01T02:35:48.664Z,5.09
2022-12-01T02:40:52.817Z,5.10
2022-12-01T02:45:57.084Z,5.08
2022-12-01T02:51:01.154Z,5.10
2022-12-01T02:56:05.307Z,5.13
2022-12-01T03:01:09.498Z,5.08
2022-12-01T03:06:13.607Z,5.10
2022-12-01T03:11:17.815Z,5.08
2022-12-01T03:16:22.010Z,5.08
2022-12-01T03:21:26.111Z,5.08
2022-12-01T03:26:30.262Z,5.09
2022-12-01T03:31:34.523Z,5.09
2022-12-01T03:36:38.602Z,5.08
2022-12-01T03:41:42.756Z,5.06
2022-12-01T03:46:46.926Z,5.07
2022-12-01T03:51:51.093Z,5.09
2022-12-01T03:56:55.248Z,5.10
2022-12-01T04:01:57.612Z,5.09
2022-12-01T04:07:01.666Z,5.11
2022-12-01T04:12:03.998Z,5.10
2022-12-01T04:17:08.122Z,5.10
2022-12-01T04:22:12.283Z,5.08
2022-12-01T04:27:16.443Z,5.06
2022-12-01T04:32:20.713Z,5.08
2022-12-01T04:37:24.775Z,5.06
2022-12-01T04:42:28.940Z,5.04
2022-12-01T04:47:33.136Z,5.02
2022-12-01T04:52:37.274Z,5.02
2022-12-01T04:57:41.438Z,5.00
2022-12-01T05:02:45.599Z,5.01
2022-12-01T05:07:49.800Z,5.01
2022-12-01T05:12:53.916Z,4.95
2022-12-01T05:17:58.080Z,4.97
2022-12-01T05:23:06.323Z,4.96
2022-12-01T05:28:06.414Z,4.95
2022-12-01T05:33:10.574Z,4.97
2022-12-01T05:38:14.752Z,4.94
2022-12-01T05:43:21.669Z,4.97
2022-12-01T05:48:23.299Z,4.97
2022-12-01T05:53:27.211Z,4.99
2022-12-01T05:58:29.489Z,4.97
2022-12-01T06:03:33.676Z,4.94
2022-12-01T06:08:35.958Z,4.94
2022-12-01T06:13:40.111Z,4.93
2022-12-01T06:18:44.277Z,4.92
2022-12-01T06:23:48.418Z,4.88
2022-12-01T06:28:52.581Z,4.89
2022-12-01T06:33:56.747Z,4.86
2022-12-01T06:39:00.927Z,4.88
2022-12-01T06:44:05.073Z,4.85
2022-12-01T06:49:09.213Z,4.82
2022-12-01T06:54:13.397Z,4.82
2022-12-01T06:59:15.679Z,4.81
2022-12-01T07:04:19.856Z,4.82
2022-12-01T07:09:23.993Z,4.83
2022-12-01T07:14:28.154Z,4.80
2022-12-01T07:19:32.310Z,4.79
2022-12-01T07:24:36.476Z,4.79
2022-12-01T07:29:40.676Z,4.79
2022-12-01T07:34:44.828Z,4.81
2022-12-01T07:39:49.269Z,4.78
2022-12-01T07:44:53.161Z,4.79
2022-12-01T07:49:57.327Z,4.76
2022-12-01T07:54:59.576Z,4.78
2022-12-01T08:00:03.728Z,4.77
2022-12-01T08:05:07.896Z,4.78
2022-12-01T08:10:10.194Z,4.76
2022-12-01T08:15:14.386Z,4.71
2022-12-01T08:20:23.696Z,4.70
2022-12-01T08:25:23.374Z,4.71
2022-12-01T08:30:26.854Z,4.74
2022-12-01T08:35:30.978Z,4.71
2022-12-01T08:40:35.168Z,4.72
2022-12-01T08:45:39.340Z,4.76
2022-12-01T08:50:43.471Z,4.69
2022-12-01T08:55:47.666Z,4.73
2022-12-01T09:00:51.818Z,4.66
2022-12-01T09:05:55.985Z,4.68
2022-12-01T09:11:00.172Z,4.71
2022-12-01T09:16:04.445Z,4.68
2022-12-01T09:21:08.482Z,4.70
2022-12-01T09:26:13.817Z,4.71
2022-12-01T09:31:16.854Z,4.70
2022-12-01T09:36:20.940Z,4.69
2022-12-01T09:41:25.146Z,4.76
2022-12-01T09:46:29.414Z,4.74
2022-12-01T09:51:33.424Z,4.80
2022-12-01T09:56:35.743Z,4.72
2022-12-01T10:01:39.918Z,4.71
2022-12-01T10:06:44.104Z,4.76
2022-12-01T10:11:46.336Z,4.79
2022-12-01T10:16:50.493Z,4.81
2022-12-01T10:21:54.661Z,4.96
2022-12-01T10:26:58.828Z,4.91
2022-12-01T10:32:03.048Z,4.96
2022-12-01T10:37:07.147Z,4.93
2022-12-01T10:42:11.302Z,4.97
2022-12-01T10:47:15.459Z,5.09
2022-12-01T10:52:19.639Z,5.08
2022-12-01T10:57:23.779Z,5.10
2022-12-01T11:07:32.166Z,5.19
2022-12-01T11:12:36.316Z,5.32
2022-12-01T11:17:40.437Z,5.45
2022-12-01T11:22:44.584Z,5.42
2022-12-01T11:27:48.766Z,5.48
2022-12-01T11:32:52.963Z,5.51
2022-12-01T11:38:21.019Z,5.45
2022-12-01T11:43:01.266Z,5.52
2022-12-01T11:48:05.409Z,5.50
2022-12-01T11:53:09.566Z,5.46
2022-12-01T11:58:11.848Z,5.53
2022-12-01T12:03:16.079Z,5.68
2022-12-01T12:08:18.275Z,5.63
2022-12-01T12:13:22.420Z,5.62
2022-12-01T12:18:26.630Z,5.63
2022-12-01T12:23:30.760Z,5.63
2022-12-01T12:28:34.935Z,5.58
2022-12-01T12:33:39.143Z,5.64
2022-12-01T12:38:43.271Z,5.67
2022-12-01T12:43:47.422Z,5.66
2022-12-01T12:49:12.158Z,5.68
2022-12-01T12:53:55.796Z,5.60
2022-12-01T12:58:59.918Z,5.60
2022-12-01T13:04:04.064Z,5.56
2022-12-01T13:09:08.271Z,5.55
2022-12-01T13:14:12.420Z,5.62
2022-12-01T13:19:16.538Z,5.61
2022-12-01T13:24:23.343Z,5.51
2022-12-01T13:29:24.882Z,5.48
2022-12-01T13:34:29.086Z,5.40
2022-12-01T13:39:33.234Z,5.41
2022-12-01T13:44:37.401Z,5.37
2022-12-01T13:49:41.541Z,5.37
2022-12-01T13:54:43.826Z,5.39
2022-12-01T13:59:48.362Z,5.42
2022-12-01T14:04:52.307Z,5.33
2022-12-01T14:09:56.325Z,5.37
2022-12-01T14:15:00.519Z,5.23
2022-12-01T14:20:04.598Z,5.28
2022-12-01T14:25:08.805Z,5.30
2022-12-01T14:30:12.949Z,5.23
2022-12-01T14:35:17.096Z,5.20
2022-12-01T14:40:21.391Z,5.16
2022-12-01T14:45:25.462Z,5.15
2022-12-01T14:50:29.615Z,5.11
2022-12-01T14:55:33.789Z,5.07
2022-12-01T15:00:37.977Z,5.02
2022-12-01T15:05:42.120Z,4.95
2022-12-01T15:10:46.279Z,4.93
2022-12-01T15:15:50.414Z,4.88
2022-12-01T15:20:54.662Z,4.85
2022-12-01T15:25:58.769Z,4.84
2022-12-01T15:31:02.942Z,4.82
2022-12-01T15:36:07.062Z,4.79
2022-12-01T15:41:30.210Z,4.78
2022-12-01T15:46:13.551Z,4.70
2022-12-01T15:51:15.813Z,4.73
2022-12-01T15:56:19.959Z,4.74
2022-12-01T16:01:22.263Z,4.70
2022-12-01T16:06:26.394Z,4.66
2022-12-01T16:11:30.565Z,4.64
2022-12-01T16:16:34.775Z,4.61
2022-12-01T16:21:38.876Z,4.62
2022-12-01T16:26:43.065Z,4.60
2022-12-01T16:32:12.590Z,4.59
2022-12-01T16:36:51.364Z,4.58
2022-12-01T16:41:55.592Z,4.57
2022-12-01T16:46:59.721Z,4.53
2022-12-01T16:52:16.014Z,4.53
2022-12-01T16:57:08.036Z,4.46
2022-12-01T17:02:12.260Z,4.44
2022-12-01T17:07:16.331Z,4.39
2022-12-01T17:12:20.526Z,4.36
2022-12-01T17:17:24.693Z,4.34
2022-12-01T17:22:29.003Z,4.21
2022-12-01T17:27:32.990Z,4.08
2022-12-01T17:32:37.176Z,4.07
2022-12-01T17:37:41.330Z,3.98
2022-12-01T17:42:48.724Z,4.00
2022-12-01T17:47:47.787Z,3.92
2022-12-01T17:52:51.942Z,3.85
2022-12-01T17:57:56.071Z,3.88
2022-12-01T18:02:58.435Z,3.84
2022-12-01T18:08:02.574Z,3.76
2022-12-01T18:13:06.709Z,3.69
2022-12-01T18:18:10.848Z,3.65
2022-12-01T18:23:15.024Z,3.59
2022-12-01T18:28:19.153Z,3.61
2022-12-01T18:33:23.357Z,3.57
2022-12-01T18:38:27.519Z,3.56
2022-12-01T18:43:31.650Z,3.54
2022-12-01T18:48:35.870Z,3.57
2022-12-01T18:53:40.028Z,3.53
2022-12-01T18:58:44.166Z,3.53
2022-12-01T19:03:48.312Z,3.51
2022-12-01T19:08:52.488Z,3.52
2022-12-01T19:13:56.631Z,3.54
2022-12-01T19:19:00.848Z,3.50
2022-12-01T19:24:04.989Z,3.52
2022-12-01T19:29:09.152Z,3.50
2022-12-01T19:34:13.361Z,3.51
2022-12-01T19:39:17.463Z,3.49
2022-12-01T19:44:21.656Z,3.46
2022-12-01T19:49:23.950Z,3.43
2022-12-01T19:54:28.070Z,3.43
2022-12-01T19:59:32.237Z,3.41
2022-12-01T20:04:36.410Z,3.39
2022-12-01T20:09:44.362Z,3.37
2022-12-01T20:14:44.768Z,3.40
2022-12-01T20:19:48.918Z,3.35
2022-12-01T20:24:53.320Z,3.40
2022-12-01T20:29:57.226Z,3.39
2022-12-01T20:35:01.419Z,3.33
2022-12-01T20:40:05.566Z,3.33
2022-12-01T20:45:09.730Z,3.33
2022-12-01T20:50:13.877Z,3.27
2022-12-01T20:55:18.033Z,3.28
2022-12-01T21:00:22.207Z,3.29
2022-12-01T21:05:26.340Z,3.25
2022-12-01T21:10:30.549Z,3.16
2022-12-01T21:15:34.723Z,3.20
2022-12-01T21:20:38.885Z,3.17
2022-12-01T21:25:43.044Z,3.14
2022-12-01T21:30:47.219Z,3.14
2022-12-01T21:35:49.475Z,3.12
2022-12-01T21:40:53.652Z,3.10
2022-12-01T21:45:55.938Z,3.12
2022-12-01T21:51:00.077Z,3.07
2022-12-01T21:56:02.339Z,3.07
2022-12-01T22:01:06.536Z,3.07
2022-12-01T22:06:30.382Z,3.03
2022-12-01T22:11:14.823Z,2.96
2022-12-01T22:16:19.036Z,2.91
2022-12-01T22:21:23.136Z,2.86
2022-12-01T22:26:27.350Z,2.84
2022-12-01T22:31:31.544Z,2.77
2022-12-01T22:36:35.629Z,2.74
2022-12-01T22:41:39.827Z,2.74
2022-12-01T22:46:44.031Z,2.67
2022-12-01T22:51:48.141Z,2.72
2022-12-01T22:56:52.345Z,2.65
2022-12-01T23:01:56.563Z,2.62
2022-12-01T23:07:00.647Z,2.60
2022-12-01T23:12:04.815Z,2.55
2022-12-01T23:17:08.981Z,2.56
2022-12-01T23:22:13.130Z,2.56
2022-12-01T23:27:17.270Z,2.48
2022-12-01T23:32:21.483Z,2.51
2022-12-01T23:37:25.666Z,2.52
2022-12-01T23:42:27.872Z,2.48
2022-12-01T23:47:32.084Z,2.51
2022-12-01T23:52:34.310Z,2.55
2022-12-01T23:57:36.614Z,2.56
